Neepawa, Canada
Current Conditions -  °F | °C
As of 7:00 PM on Sunday 23 Nov 2014 (Local Time) from CYBR Reporting Station
Light Snow Light Snow  
Wind Chill: -7°   Ceiling: 2200
Heat Index: 10°   Visibility: 10mi
Dew Point:   Wind: 17mph
Humidity: 79%   Direction: 340°NNW
Pressure: 29.73"   Gusts: NA
Location:  50.23°N, 99.45°W
Report Text: CYBR 240100Z 34015KT 10SM -SN OVC022 M12/M15 A2973 RMK SC8 SLP098
Loading
Personal Weather Stations






























Interactive Weather Map New forecast layout! Learn more

10-Day Weather Forecast

Advertisements
Track Severe Weather on mobile